createdAt,value
2019-03-27T00:00:10.507Z,4.08
2019-03-27T00:02:39.321Z,3.60
2019-03-27T00:05:08.301Z,6.28
2019-03-27T00:07:37.142Z,3.00
2019-03-27T00:10:08.359Z,4.33
2019-03-27T00:12:37.889Z,3.42
2019-03-27T00:15:13.402Z,3.17
2019-03-27T00:17:40.949Z,4.10
2019-03-27T00:20:11.667Z,6.80
2019-03-27T00:22:40.525Z,4.67
2019-03-27T00:25:09.765Z,4.55
2019-03-27T00:27:38.605Z,4.30
2019-03-27T00:30:08.888Z,5.10
2019-03-27T00:32:37.756Z,3.47
2019-03-27T00:35:07.935Z,5.72
2019-03-27T00:37:36.780Z,5.72
2019-03-27T00:40:08.587Z,7.60
2019-03-27T00:42:37.445Z,4.75
2019-03-27T00:45:07.983Z,5.65
2019-03-27T00:47:36.833Z,4.42
2019-03-27T00:50:09.830Z,5.45
2019-03-27T00:52:38.712Z,4.87
2019-03-27T00:55:08.462Z,3.65
2019-03-27T00:57:37.340Z,5.40
2019-03-27T01:00:24.216Z,3.42
2019-03-27T01:02:53.079Z,3.08
2019-03-27T01:05:22.110Z,4.78
2019-03-27T01:07:50.952Z,4.53
2019-03-27T01:10:19.789Z,6.75
2019-03-27T01:12:48.769Z,4.85
2019-03-27T01:15:17.605Z,3.55
2019-03-27T01:17:46.424Z,4.15
2019-03-27T01:20:15.272Z,5.62
2019-03-27T01:22:44.105Z,5.15
2019-03-27T01:25:13.013Z,4.45
2019-03-27T01:27:41.793Z,4.90
2019-03-27T01:30:10.974Z,4.37
2019-03-27T01:32:39.801Z,8.00
2019-03-27T01:35:09.055Z,4.87
2019-03-27T01:37:37.883Z,3.90
2019-03-27T01:40:07.350Z,6.37
2019-03-27T01:42:36.187Z,4.37
2019-03-27T01:45:07.475Z,4.40
2019-03-27T01:47:36.338Z,4.57
2019-03-27T01:50:08.784Z,6.67
2019-03-27T01:52:37.634Z,5.90
2019-03-27T01:55:07.763Z,5.70
2019-03-27T01:57:36.628Z,3.70
2019-03-27T02:00:09.115Z,3.75
2019-03-27T02:02:37.979Z,5.22
2019-03-27T02:05:07.626Z,4.28
2019-03-27T02:07:36.477Z,5.90
2019-03-27T02:10:10.005Z,5.45
2019-03-27T02:12:38.873Z,5.58
2019-03-27T02:15:08.904Z,5.30
2019-03-27T02:17:37.780Z,6.87
2019-03-27T02:20:08.005Z,3.62
2019-03-27T02:22:36.803Z,7.08
2019-03-27T02:25:06.747Z,6.53
2019-03-27T02:27:35.571Z,4.62
2019-03-27T02:30:07.973Z,3.75
2019-03-27T02:32:36.834Z,4.83
2019-03-27T02:35:06.509Z,5.03
2019-03-27T02:37:35.321Z,4.20
2019-03-27T02:40:05.576Z,5.00
2019-03-27T02:42:34.405Z,6.35
2019-03-27T02:45:03.270Z,4.30
2019-03-27T02:47:32.085Z,6.40
2019-03-27T02:50:00.941Z,5.67
2019-03-27T02:52:29.761Z,9.53
2019-03-27T02:54:58.552Z,4.95
2019-03-27T02:57:27.368Z,7.08
2019-03-27T02:59:56.209Z,4.30
2019-03-27T03:02:25.027Z,5.17
2019-03-27T03:04:53.882Z,5.53
2019-03-27T03:07:22.692Z,5.35
2019-03-27T03:09:51.551Z,5.55
2019-03-27T03:12:20.387Z,5.30
2019-03-27T03:14:49.242Z,4.70
2019-03-27T03:17:18.039Z,4.22
2019-03-27T03:19:46.928Z,4.30
2019-03-27T03:22:15.772Z,4.00
2019-03-27T03:24:44.582Z,5.20
2019-03-27T03:27:13.434Z,4.75
2019-03-27T03:29:42.232Z,5.10
2019-03-27T03:32:11.291Z,7.70
2019-03-27T03:34:40.164Z,4.30
2019-03-27T03:37:09.013Z,5.95
2019-03-27T03:39:37.839Z,5.20
2019-03-27T03:42:06.628Z,5.87
2019-03-27T03:44:35.450Z,6.53
2019-03-27T03:47:04.315Z,4.75
2019-03-27T03:49:33.129Z,5.90
2019-03-27T03:52:01.998Z,4.97
2019-03-27T03:54:30.818Z,5.42
2019-03-27T03:57:02.277Z,5.47
2019-03-27T03:59:31.296Z,4.58
2019-03-27T04:02:03.324Z,6.95
2019-03-27T04:04:35.067Z,4.80
2019-03-27T04:07:03.927Z,8.05
2019-03-27T04:09:32.771Z,7.53
2019-03-27T04:12:01.603Z,6.50
2019-03-27T04:14:30.440Z,6.10
2019-03-27T04:17:15.788Z,9.78
2019-03-27T04:19:29.761Z,6.75
2019-03-27T04:21:58.614Z,6.20
2019-03-27T04:24:27.470Z,6.70
2019-03-27T04:26:56.338Z,6.80
2019-03-27T04:29:25.162Z,5.30
2019-03-27T04:31:53.992Z,7.95
2019-03-27T04:34:22.870Z,5.42
2019-03-27T04:36:51.675Z,5.00
2019-03-27T04:39:20.526Z,5.42
2019-03-27T04:41:49.346Z,11.40
2019-03-27T04:44:18.201Z,6.28
2019-03-27T04:46:47.035Z,8.78
2019-03-27T04:49:15.874Z,7.17
2019-03-27T04:51:44.705Z,5.55
2019-03-27T04:54:13.586Z,7.15
2019-03-27T04:56:42.420Z,5.53
2019-03-27T04:59:11.284Z,5.50
2019-03-27T05:01:40.100Z,11.57
2019-03-27T05:04:08.953Z,9.10
2019-03-27T05:06:37.729Z,8.25
2019-03-27T05:09:06.661Z,6.95
2019-03-27T05:11:35.522Z,6.15
2019-03-27T05:14:04.347Z,7.80
2019-03-27T05:16:33.247Z,6.25
2019-03-27T05:19:02.060Z,6.17
2019-03-27T05:21:30.921Z,7.20
2019-03-27T05:23:59.728Z,5.92
2019-03-27T05:26:28.568Z,8.25
2019-03-27T05:28:57.336Z,8.18
2019-03-27T05:31:26.188Z,7.95
2019-03-27T05:33:55.019Z,6.65
2019-03-27T05:36:23.887Z,6.40
2019-03-27T05:38:52.706Z,7.70
2019-03-27T05:41:21.570Z,5.40
2019-03-27T05:43:50.378Z,6.72
2019-03-27T05:46:19.264Z,7.00
2019-03-27T05:48:48.117Z,5.55
2019-03-27T05:51:16.942Z,7.60
2019-03-27T05:53:45.809Z,5.62
2019-03-27T05:56:14.627Z,6.60
2019-03-27T05:58:43.504Z,15.10
2019-03-27T06:01:12.335Z,12.70
2019-03-27T06:03:41.187Z,6.12
2019-03-27T06:06:10.013Z,6.80
2019-03-27T06:08:38.879Z,8.23
2019-03-27T06:11:07.710Z,8.23
2019-03-27T06:13:36.585Z,8.33
2019-03-27T06:16:05.397Z,11.78
2019-03-27T06:18:34.246Z,6.95
2019-03-27T06:21:03.074Z,12.58
2019-03-27T06:23:32.019Z,7.97
2019-03-27T06:26:00.858Z,6.80
2019-03-27T06:28:29.717Z,15.83
2019-03-27T06:30:58.542Z,21.40
2019-03-27T06:33:27.394Z,9.60
2019-03-27T06:35:56.232Z,9.85
2019-03-27T06:38:25.102Z,11.10
2019-03-27T06:40:53.908Z,10.53
2019-03-27T06:43:22.790Z,11.15
2019-03-27T06:45:51.664Z,11.10
2019-03-27T06:48:26.163Z,11.63
2019-03-27T06:50:50.990Z,9.90
2019-03-27T06:53:19.844Z,11.10
2019-03-27T06:55:48.705Z,6.97
2019-03-27T06:58:17.530Z,6.87
2019-03-27T07:00:46.399Z,8.65
2019-03-27T07:03:15.231Z,8.60
2019-03-27T07:05:44.086Z,13.15
2019-03-27T07:08:12.910Z,12.75
2019-03-27T07:10:41.749Z,6.67
2019-03-27T07:13:10.607Z,8.15
2019-03-27T07:15:39.432Z,10.85
2019-03-27T07:18:08.296Z,6.75
2019-03-27T07:20:37.128Z,7.92
2019-03-27T07:23:05.992Z,10.40
2019-03-27T07:25:34.815Z,7.92
2019-03-27T07:28:03.681Z,10.98
2019-03-27T07:30:32.526Z,8.60
2019-03-27T07:33:01.399Z,9.10
2019-03-27T07:35:30.268Z,8.75
2019-03-27T07:37:59.076Z,6.75
2019-03-27T07:40:27.942Z,7.35
2019-03-27T07:42:56.847Z,8.10
2019-03-27T07:45:25.724Z,6.75
2019-03-27T07:47:54.545Z,6.95
2019-03-27T07:50:23.407Z,9.25
2019-03-27T07:52:52.229Z,7.72
2019-03-27T07:55:21.091Z,4.60
2019-03-27T07:57:49.920Z,6.30
2019-03-27T08:00:21.935Z,5.08
2019-03-27T08:02:50.750Z,5.08
2019-03-27T08:05:19.618Z,6.65
2019-03-27T08:07:48.437Z,5.20
2019-03-27T08:10:17.305Z,6.08
2019-03-27T08:12:46.173Z,4.95
2019-03-27T08:15:16.606Z,6.30
2019-03-27T08:17:45.422Z,5.03
2019-03-27T08:20:14.978Z,7.20
2019-03-27T08:22:43.802Z,8.30
2019-03-27T08:25:13.061Z,6.03
2019-03-27T08:27:41.901Z,4.45
2019-03-27T08:30:13.277Z,7.97
2019-03-27T08:32:42.138Z,7.78
2019-03-27T08:35:11.463Z,5.75
2019-03-27T08:37:40.335Z,4.78
2019-03-27T08:40:12.788Z,5.15
2019-03-27T08:42:52.827Z,6.10
2019-03-27T08:45:21.812Z,5.97
2019-03-27T08:47:50.670Z,5.70
2019-03-27T08:50:20.210Z,6.70
2019-03-27T08:52:49.100Z,7.25
2019-03-27T08:55:17.890Z,4.53
2019-03-27T08:57:46.763Z,7.17
2019-03-27T09:00:16.491Z,5.22
2019-03-27T09:02:45.348Z,10.60
2019-03-27T09:05:14.272Z,7.25
2019-03-27T09:07:43.127Z,5.83
2019-03-27T09:10:13.997Z,6.42
2019-03-27T09:12:42.833Z,6.30
2019-03-27T09:15:12.227Z,6.05
2019-03-27T09:17:41.060Z,5.28
2019-03-27T09:20:10.314Z,5.22
2019-03-27T09:22:39.150Z,7.05
2019-03-27T09:25:08.102Z,5.10
2019-03-27T09:27:36.925Z,5.37
2019-03-27T09:30:11.428Z,5.25
2019-03-27T09:32:40.246Z,5.33
2019-03-27T09:35:09.106Z,9.95
2019-03-27T09:37:37.944Z,4.72
2019-03-27T09:40:07.393Z,5.92
2019-03-27T09:42:36.222Z,4.85
2019-03-27T09:45:07.956Z,7.03
2019-03-27T09:47:37.166Z,4.95
2019-03-27T09:50:07.033Z,6.62
2019-03-27T09:52:35.904Z,7.58
2019-03-27T09:55:05.868Z,7.42
2019-03-27T09:57:34.677Z,6.47
2019-03-27T10:00:04.979Z,8.60
2019-03-27T10:02:33.840Z,9.83
2019-03-27T10:05:02.666Z,4.40
2019-03-27T10:07:31.522Z,6.60
2019-03-27T10:10:00.471Z,6.15
2019-03-27T10:12:29.413Z,7.33
2019-03-27T10:14:58.243Z,5.25
2019-03-27T10:17:27.100Z,5.42
2019-03-27T10:20:03.222Z,5.20
2019-03-27T10:22:26.415Z,7.55
2019-03-27T10:24:55.237Z,7.70
2019-03-27T10:27:24.090Z,6.35
2019-03-27T10:29:52.863Z,11.15
2019-03-27T10:32:21.705Z,6.65
2019-03-27T10:34:50.544Z,6.62
2019-03-27T10:37:19.413Z,8.08
2019-03-27T10:39:48.277Z,8.48
2019-03-27T10:42:17.190Z,6.00
2019-03-27T10:44:46.010Z,6.58
2019-03-27T10:47:14.861Z,8.85
2019-03-27T10:49:43.673Z,6.20
2019-03-27T10:52:12.538Z,6.85
2019-03-27T10:54:41.361Z,5.55
2019-03-27T10:57:10.223Z,5.87
2019-03-27T10:59:39.084Z,6.78
2019-03-27T11:02:07.924Z,8.18
2019-03-27T11:04:36.803Z,7.67
2019-03-27T11:07:05.735Z,5.83
2019-03-27T11:09:34.622Z,6.42
2019-03-27T11:12:03.570Z,9.75
2019-03-27T11:14:38.079Z,7.80
2019-03-27T11:17:02.993Z,6.75
2019-03-27T11:19:33.549Z,5.90
2019-03-27T11:22:02.348Z,7.08
2019-03-27T11:24:31.225Z,7.80
2019-03-27T11:27:00.379Z,7.22
2019-03-27T11:29:29.205Z,6.10
2019-03-27T11:31:58.064Z,6.47
2019-03-27T11:34:26.900Z,6.90
2019-03-27T11:36:55.758Z,8.35
2019-03-27T11:39:24.854Z,6.65
2019-03-27T11:41:54.064Z,4.58
2019-03-27T11:44:22.868Z,5.72
2019-03-27T11:46:51.726Z,6.15
2019-03-27T11:49:20.550Z,6.97
2019-03-27T11:51:49.406Z,6.42
2019-03-27T11:54:18.246Z,6.40
2019-03-27T11:56:47.145Z,9.48
2019-03-27T11:59:15.998Z,8.15
2019-03-27T12:01:44.854Z,7.17
2019-03-27T12:04:13.701Z,8.55
2019-03-27T12:06:42.536Z,6.80
2019-03-27T12:09:11.397Z,8.10
2019-03-27T12:11:40.219Z,8.25
2019-03-27T12:14:12.130Z,7.30
2019-03-27T12:16:39.553Z,10.98
2019-03-27T12:19:08.422Z,7.03
2019-03-27T12:21:37.241Z,7.67
2019-03-27T12:24:06.115Z,12.65
2019-03-27T12:26:34.939Z,9.20
2019-03-27T12:29:03.790Z,9.08
2019-03-27T12:31:32.599Z,6.20
2019-03-27T12:34:01.457Z,6.20
2019-03-27T12:36:30.347Z,8.90
2019-03-27T12:38:59.196Z,7.97
2019-03-27T12:41:28.031Z,8.48
2019-03-27T12:43:56.895Z,18.85
2019-03-27T12:46:25.732Z,10.18
2019-03-27T12:48:54.570Z,9.55
2019-03-27T12:51:23.517Z,9.13
2019-03-27T12:53:52.323Z,9.03
2019-03-27T12:56:21.183Z,8.65
2019-03-27T12:58:50.801Z,8.55
2019-03-27T13:01:19.668Z,7.55
2019-03-27T13:03:48.483Z,8.48
2019-03-27T13:06:17.351Z,9.05
2019-03-27T13:08:49.267Z,8.65
2019-03-27T13:11:16.652Z,8.88
2019-03-27T13:13:45.468Z,9.13
2019-03-27T13:16:14.317Z,7.97
2019-03-27T13:18:43.131Z,8.95
2019-03-27T13:21:25.294Z,11.18
2019-03-27T13:23:42.459Z,8.48
2019-03-27T13:26:11.332Z,8.15
2019-03-27T13:28:48.832Z,8.40
2019-03-27T13:31:10.677Z,8.00
2019-03-27T13:33:39.512Z,8.38
2019-03-27T13:36:08.476Z,8.48
2019-03-27T13:38:37.934Z,8.55
2019-03-27T13:41:06.744Z,8.70
2019-03-27T13:43:35.622Z,8.05
2019-03-27T13:46:04.433Z,8.03
2019-03-27T13:48:33.633Z,13.30
2019-03-27T13:51:02.913Z,10.60
2019-03-27T13:53:31.890Z,8.35
2019-03-27T13:56:01.207Z,11.35
2019-03-27T13:58:30.144Z,10.18
2019-03-27T14:00:59.099Z,10.08
2019-03-27T14:03:27.972Z,9.33
2019-03-27T14:05:56.795Z,9.00
2019-03-27T14:08:25.656Z,9.10
2019-03-27T14:10:54.464Z,9.43
2019-03-27T14:13:23.262Z,8.50
2019-03-27T14:15:52.096Z,8.83
2019-03-27T14:18:20.906Z,8.58
2019-03-27T14:20:49.766Z,8.90
2019-03-27T14:23:18.574Z,9.05
2019-03-27T14:25:47.424Z,9.20
2019-03-27T14:28:16.270Z,11.18
2019-03-27T14:30:56.489Z,8.55
2019-03-27T14:33:25.301Z,8.93
2019-03-27T14:35:55.276Z,7.65
2019-03-27T14:38:24.114Z,8.25
2019-03-27T14:40:52.976Z,9.58
2019-03-27T14:43:21.815Z,9.78
2019-03-27T14:45:50.659Z,8.28
2019-03-27T14:48:19.507Z,10.23
2019-03-27T14:50:48.321Z,8.30
2019-03-27T14:53:17.171Z,8.35
2019-03-27T14:55:46.008Z,9.68
2019-03-27T14:58:14.866Z,9.13
2019-03-27T15:00:43.711Z,7.87
2019-03-27T15:03:12.544Z,9.33
2019-03-27T15:05:41.381Z,12.37
2019-03-27T15:08:10.234Z,8.15
2019-03-27T15:10:38.992Z,10.43
2019-03-27T15:13:07.879Z,12.40
2019-03-27T15:15:36.708Z,10.78
2019-03-27T15:18:05.562Z,9.95
2019-03-27T15:20:34.402Z,7.72
2019-03-27T15:23:03.257Z,10.80
2019-03-27T15:25:32.104Z,12.88
2019-03-27T15:28:00.973Z,6.47
2019-03-27T15:30:29.790Z,8.38
2019-03-27T15:32:58.643Z,6.20
2019-03-27T15:35:27.380Z,7.55
2019-03-27T15:37:56.242Z,7.35
2019-03-27T15:40:42.303Z,7.00
2019-03-27T15:43:11.165Z,7.08
2019-03-27T15:45:40.295Z,7.12
2019-03-27T15:48:09.213Z,7.60
2019-03-27T15:50:38.060Z,7.92
2019-03-27T15:53:06.872Z,9.65
2019-03-27T15:55:35.734Z,5.55
2019-03-27T15:58:04.648Z,7.37
2019-03-27T16:00:33.506Z,7.00
2019-03-27T16:03:02.323Z,7.85
2019-03-27T16:05:31.168Z,5.97
2019-03-27T16:07:59.994Z,11.18
2019-03-27T16:10:28.868Z,6.87
2019-03-27T16:12:57.686Z,6.85
2019-03-27T16:15:26.541Z,8.73
2019-03-27T16:17:55.363Z,6.50
2019-03-27T16:20:43.482Z,6.65
2019-03-27T16:23:12.309Z,8.40
2019-03-27T16:25:41.174Z,8.18
2019-03-27T16:28:09.983Z,7.85
2019-03-27T16:30:38.855Z,11.10
2019-03-27T16:33:07.676Z,30.52
2019-03-27T16:35:36.540Z,16.42
2019-03-27T16:38:05.364Z,10.58
2019-03-27T16:40:47.719Z,7.65
2019-03-27T16:43:16.544Z,6.67
2019-03-27T16:45:45.688Z,12.23
2019-03-27T16:48:14.720Z,8.25
2019-03-27T16:50:43.549Z,8.68
2019-03-27T16:53:12.395Z,7.35
2019-03-27T16:55:41.243Z,7.53
2019-03-27T16:58:10.109Z,11.35
2019-03-27T17:00:39.341Z,8.65
2019-03-27T17:03:08.213Z,10.78
2019-03-27T17:05:37.080Z,6.28
2019-03-27T17:08:05.915Z,8.83
2019-03-27T17:10:34.757Z,8.78
2019-03-27T17:13:03.603Z,11.38
2019-03-27T17:15:32.457Z,10.88
2019-03-27T17:18:01.284Z,12.45
2019-03-27T17:20:30.128Z,9.80
2019-03-27T17:22:59.007Z,10.00
2019-03-27T17:25:27.861Z,13.05
2019-03-27T17:27:56.739Z,8.08
2019-03-27T17:30:26.494Z,13.62
2019-03-27T17:32:55.314Z,11.50
2019-03-27T17:35:24.114Z,11.08
2019-03-27T17:37:52.995Z,10.55
2019-03-27T17:40:21.814Z,11.97
2019-03-27T17:42:50.723Z,14.07
2019-03-27T17:45:19.614Z,16.27
2019-03-27T17:47:48.488Z,12.50
2019-03-27T17:50:17.309Z,12.10
2019-03-27T17:52:46.177Z,17.23
2019-03-27T17:55:15.109Z,11.93
2019-03-27T17:57:43.961Z,13.68
2019-03-27T18:00:15.451Z,14.03
2019-03-27T18:02:44.308Z,12.85
2019-03-27T18:05:13.797Z,19.98
2019-03-27T18:07:42.711Z,13.32
2019-03-27T18:10:11.625Z,19.30
2019-03-27T18:12:40.494Z,20.57
2019-03-27T18:15:09.514Z,10.75
2019-03-27T18:17:38.400Z,12.70
2019-03-27T18:20:07.364Z,16.30
2019-03-27T18:22:36.220Z,14.68
2019-03-27T18:25:06.091Z,18.37
2019-03-27T18:27:34.904Z,11.75
2019-03-27T18:30:04.925Z,15.98
2019-03-27T18:32:33.736Z,13.95
2019-03-27T18:35:02.600Z,19.25
2019-03-27T18:37:31.471Z,24.23
2019-03-27T18:40:00.490Z,18.17
2019-03-27T18:42:29.273Z,14.58
2019-03-27T18:44:58.119Z,22.27
2019-03-27T18:47:27.003Z,20.32
2019-03-27T18:49:55.851Z,19.87
2019-03-27T18:52:24.706Z,21.15
2019-03-27T18:54:53.549Z,22.35
2019-03-27T18:57:22.423Z,15.50
2019-03-27T18:59:51.334Z,17.25
2019-03-27T19:02:20.166Z,14.75
2019-03-27T19:04:49.060Z,18.45
2019-03-27T19:07:17.913Z,27.55
2019-03-27T19:09:46.783Z,24.12
2019-03-27T19:12:15.600Z,19.10
2019-03-27T19:14:44.518Z,20.77
2019-03-27T19:17:13.347Z,25.27
2019-03-27T19:19:42.261Z,19.35
2019-03-27T19:22:11.139Z,20.20
2019-03-27T19:24:39.954Z,20.35
2019-03-27T19:27:08.846Z,21.35
2019-03-27T19:29:37.598Z,18.37
2019-03-27T19:32:06.485Z,20.77
2019-03-27T19:34:35.463Z,23.92
2019-03-27T19:37:04.457Z,21.37
2019-03-27T19:39:33.344Z,21.33
2019-03-27T19:42:02.292Z,24.65
2019-03-27T19:44:31.228Z,25.05
2019-03-27T19:47:00.117Z,29.15
2019-03-27T19:49:28.929Z,25.37
2019-03-27T19:51:57.840Z,20.77
2019-03-27T19:54:27.629Z,22.07
2019-03-27T19:56:56.700Z,18.95
2019-03-27T19:59:25.603Z,25.43
2019-03-27T20:01:54.435Z,18.23
2019-03-27T20:04:23.348Z,21.02
2019-03-27T20:06:52.232Z,25.97
2019-03-27T20:09:21.134Z,24.50
2019-03-27T20:11:50.056Z,22.80
2019-03-27T20:14:19.412Z,18.77
2019-03-27T20:16:48.248Z,21.45
2019-03-27T20:19:17.149Z,30.92
2019-03-27T20:21:46.238Z,26.05
2019-03-27T20:24:15.090Z,27.55
2019-03-27T20:26:43.932Z,30.95
2019-03-27T20:29:12.866Z,16.25
2019-03-27T20:31:41.767Z,19.65
2019-03-27T20:34:10.633Z,18.07
2019-03-27T20:36:39.505Z,19.23
2019-03-27T20:39:08.931Z,18.32
2019-03-27T20:41:37.817Z,19.73
2019-03-27T20:44:06.655Z,15.35
2019-03-27T20:46:35.518Z,18.37
2019-03-27T20:49:04.399Z,14.63
2019-03-27T20:51:33.263Z,17.30
2019-03-27T20:54:02.092Z,15.88
2019-03-27T20:56:31.013Z,19.30
2019-03-27T20:59:01.306Z,18.25
2019-03-27T21:01:30.600Z,23.12
2019-03-27T21:03:59.433Z,17.27
2019-03-27T21:06:28.334Z,18.48
2019-03-27T21:08:57.269Z,19.23
2019-03-27T21:11:26.076Z,16.73
2019-03-27T21:13:55.002Z,19.35
2019-03-27T21:16:23.840Z,18.15
2019-03-27T21:18:52.699Z,15.15
2019-03-27T21:21:21.590Z,15.43
2019-03-27T21:23:50.520Z,16.65
2019-03-27T21:26:19.382Z,14.70
2019-03-27T21:28:49.998Z,18.98
2019-03-27T21:31:18.917Z,15.88
2019-03-27T21:33:47.801Z,17.55
2019-03-27T21:36:16.618Z,16.37
2019-03-27T21:38:45.508Z,17.07
2019-03-27T21:41:14.351Z,13.65
2019-03-27T21:43:43.203Z,18.82
2019-03-27T21:46:12.075Z,14.58
2019-03-27T21:48:40.950Z,16.67
2019-03-27T21:51:09.841Z,14.78
2019-03-27T21:53:38.662Z,15.65
2019-03-27T21:56:07.579Z,14.23
2019-03-27T21:58:36.445Z,14.43
2019-03-27T22:01:05.392Z,11.57
2019-03-27T22:03:34.251Z,15.25
2019-03-27T22:06:03.102Z,13.72
2019-03-27T22:08:31.987Z,17.62
2019-03-27T22:11:00.838Z,17.35
2019-03-27T22:13:29.717Z,16.35
2019-03-27T22:15:58.632Z,13.20
2019-03-27T22:18:27.526Z,14.47
2019-03-27T22:20:56.341Z,12.25
2019-03-27T22:23:25.198Z,18.82
2019-03-27T22:25:54.019Z,14.85
2019-03-27T22:28:22.887Z,11.70
2019-03-27T22:30:51.641Z,11.93
2019-03-27T22:33:20.549Z,13.88
2019-03-27T22:35:49.424Z,11.83
2019-03-27T22:38:18.253Z,11.38
2019-03-27T22:40:47.070Z,12.95
2019-03-27T22:43:15.928Z,13.20
2019-03-27T22:45:44.793Z,12.10
2019-03-27T22:48:13.781Z,13.72
2019-03-27T22:50:42.675Z,11.80
2019-03-27T22:53:11.478Z,9.85
2019-03-27T22:55:49.863Z,14.85
2019-03-27T22:58:13.006Z,13.65
2019-03-27T23:00:45.744Z,13.45
2019-03-27T23:03:18.525Z,14.73
2019-03-27T23:05:46.083Z,17.77
2019-03-27T23:08:14.905Z,12.88
2019-03-27T23:10:43.773Z,10.43
2019-03-27T23:13:12.580Z,12.47
2019-03-27T23:15:41.442Z,12.65
2019-03-27T23:18:10.295Z,11.33
2019-03-27T23:20:39.161Z,12.70
2019-03-27T23:23:07.962Z,14.78
2019-03-27T23:25:36.821Z,14.83
2019-03-27T23:28:05.677Z,11.65
2019-03-27T23:30:34.501Z,14.25
2019-03-27T23:33:03.362Z,11.25
2019-03-27T23:35:32.312Z,10.38
2019-03-27T23:38:01.285Z,8.53
2019-03-27T23:40:30.373Z,9.63
2019-03-27T23:42:59.229Z,13.05
2019-03-27T23:45:29.142Z,9.33
2019-03-27T23:47:58.372Z,10.55
2019-03-27T23:50:27.194Z,11.97
2019-03-27T23:52:56.052Z,10.50
2019-03-27T23:55:24.877Z,7.12
2019-03-27T23:57:53.689Z,10.20
